sensor_id;sensor_type;location;lat;lon;timestamp;pressure;altitude;pressure_sealevel;temperature;humidity
51299;BME280;37382;45.192;9.790;2023-02-18T00:01:00;102578.78;;;5.82;100.00
51299;BME280;37382;45.192;9.790;2023-02-18T00:03:28;102574.16;;;6.07;100.00
51299;BME280;37382;45.192;9.790;2023-02-18T00:05:55;102568.38;;;6.34;100.00
51299;BME280;37382;45.192;9.790;2023-02-18T00:08:23;102567.38;;;6.47;100.00
51299;BME280;37382;45.192;9.790;2023-02-18T00:10:50;102562.94;;;6.57;100.00
51299;BME280;37382;45.192;9.790;2023-02-18T00:13:18;102559.31;;;6.68;100.00
51299;BME280;37382;45.192;9.790;2023-02-18T00:15:45;102558.41;;;6.46;100.00
51299;BME280;37382;45.192;9.790;2023-02-18T00:18:13;102559.91;;;6.16;100.00
51299;BME280;37382;45.192;9.790;2023-02-18T00:20:40;102562.00;;;6.13;100.00
51299;BME280;37382;45.192;9.790;2023-02-18T00:23:07;102556.94;;;6.19;100.00
51299;BME280;37382;45.192;9.790;2023-02-18T00:25:35;102556.06;;;6.41;100.00
51299;BME280;37382;45.192;9.790;2023-02-18T00:28:02;102560.47;;;6.54;100.00
51299;BME280;37382;45.192;9.790;2023-02-18T00:30:29;102555.16;;;6.64;100.00
51299;BME280;37382;45.192;9.790;2023-02-18T00:32:57;102559.47;;;6.66;100.00
51299;BME280;37382;45.192;9.790;2023-02-18T00:35:25;102556.53;;;6.58;100.00
51299;BME280;37382;45.192;9.790;2023-02-18T00:37:53;102553.00;;;6.46;100.00
51299;BME280;37382;45.192;9.790;2023-02-18T00:40:20;102552.75;;;6.49;100.00
51299;BME280;37382;45.192;9.790;2023-02-18T00:42:48;102560.47;;;6.54;100.00
51299;BME280;37382;45.192;9.790;2023-02-18T00:45:16;102556.16;;;6.63;100.00
51299;BME280;37382;45.192;9.790;2023-02-18T00:47:44;102557.09;;;6.73;100.00
51299;BME280;37382;45.192;9.790;2023-02-18T00:50:12;102557.06;;;6.84;100.00
51299;BME280;37382;45.192;9.790;2023-02-18T00:52:39;102558.53;;;6.88;100.00
51299;BME280;37382;45.192;9.790;2023-02-18T00:55:07;102545.00;;;6.88;100.00
51299;BME280;37382;45.192;9.790;2023-02-18T00:57:34;102545.66;;;6.81;100.00
51299;BME280;37382;45.192;9.790;2023-02-18T01:00:04;102552.13;;;6.89;100.00
51299;BME280;37382;45.192;9.790;2023-02-18T01:02:32;102539.81;;;6.64;100.00
51299;BME280;37382;45.192;9.790;2023-02-18T01:04:59;102544.41;;;6.30;100.00
51299;BME280;37382;45.192;9.790;2023-02-18T01:07:27;102549.19;;;5.81;100.00
51299;BME280;37382;45.192;9.790;2023-02-18T01:09:54;102545.63;;;5.58;100.00
51299;BME280;37382;45.192;9.790;2023-02-18T01:12:21;102547.13;;;5.15;100.00
51299;BME280;37382;45.192;9.790;2023-02-18T01:14:49;102548.47;;;4.85;100.00
51299;BME280;37382;45.192;9.790;2023-02-18T01:17:16;102549.25;;;4.74;100.00
51299;BME280;37382;45.192;9.790;2023-02-18T01:19:43;102543.78;;;4.87;100.00
51299;BME280;37382;45.192;9.790;2023-02-18T01:22:11;102539.81;;;5.28;100.00
51299;BME280;37382;45.192;9.790;2023-02-18T01:24:41;102544.84;;;5.44;100.00
51299;BME280;37382;45.192;9.790;2023-02-18T01:27:09;102536.75;;;5.44;100.00
51299;BME280;37382;45.192;9.790;2023-02-18T01:29:37;102537.66;;;5.67;100.00
51299;BME280;37382;45.192;9.790;2023-02-18T01:32:04;102535.94;;;5.78;100.00
51299;BME280;37382;45.192;9.790;2023-02-18T01:34:32;102531.91;;;5.83;100.00
51299;BME280;37382;45.192;9.790;2023-02-18T01:37:00;102534.00;;;6.02;100.00
51299;BME280;37382;45.192;9.790;2023-02-18T01:39:28;102526.47;;;5.95;100.00
51299;BME280;37382;45.192;9.790;2023-02-18T01:41:55;102524.88;;;5.92;100.00
51299;BME280;37382;45.192;9.790;2023-02-18T01:44:24;102523.44;;;6.11;100.00
51299;BME280;37382;45.192;9.790;2023-02-18T01:46:53;102516.06;;;6.13;100.00
51299;BME280;37382;45.192;9.790;2023-02-18T01:49:30;102522.44;;;5.66;100.00
51299;BME280;37382;45.192;9.790;2023-02-18T01:52:02;102518.53;;;5.12;100.00
51299;BME280;37382;45.192;9.790;2023-02-18T01:54:32;102517.13;;;4.95;100.00
51299;BME280;37382;45.192;9.790;2023-02-18T01:57:10;102519.59;;;4.98;100.00
51299;BME280;37382;45.192;9.790;2023-02-18T01:59:43;102521.47;;;5.09;100.00
51299;BME280;37382;45.192;9.790;2023-02-18T02:02:14;102517.09;;;5.20;100.00
51299;BME280;37382;45.192;9.790;2023-02-18T02:04:43;102512.09;;;5.49;100.00
51299;BME280;37382;45.192;9.790;2023-02-18T02:07:12;102518.91;;;5.19;100.00
51299;BME280;37382;45.192;9.790;2023-02-18T02:09:40;102513.31;;;5.33;100.00
51299;BME280;37382;45.192;9.790;2023-02-18T02:12:27;102517.63;;;5.47;100.00
51299;BME280;37382;45.192;9.790;2023-02-18T02:40:00;102517.84;;;5.44;100.00
51299;BME280;37382;45.192;9.790;2023-02-18T02:48:18;102509.41;;;5.38;100.00
51299;BME280;37382;45.192;9.790;2023-02-18T02:53:33;102511.75;;;5.07;100.00
51299;BME280;37382;45.192;9.790;2023-02-18T02:56:02;102511.06;;;4.56;100.00
51299;BME280;37382;45.192;9.790;2023-02-18T02:58:30;102514.13;;;4.87;100.00
51299;BME280;37382;45.192;9.790;2023-02-18T03:01:29;102512.38;;;4.75;100.00
51299;BME280;37382;45.192;9.790;2023-02-18T03:12:26;102511.78;;;4.82;100.00
51299;BME280;37382;45.192;9.790;2023-02-18T03:23:45;102497.28;;;4.96;100.00
51299;BME280;37382;45.192;9.790;2023-02-18T03:26:16;102491.28;;;5.04;100.00
51299;BME280;37382;45.192;9.790;2023-02-18T03:28:45;102494.53;;;4.85;100.00
51299;BME280;37382;45.192;9.790;2023-02-18T03:31:18;102493.50;;;4.51;100.00
51299;BME280;37382;45.192;9.790;2023-02-18T03:34:10;102497.44;;;4.71;100.00
51299;BME280;37382;45.192;9.790;2023-02-18T03:36:41;102486.72;;;4.93;100.00
51299;BME280;37382;45.192;9.790;2023-02-18T03:39:14;102491.75;;;4.98;100.00
51299;BME280;37382;45.192;9.790;2023-02-18T03:41:42;102496.06;;;4.76;100.00
51299;BME280;37382;45.192;9.790;2023-02-18T03:44:12;102491.69;;;4.51;100.00
51299;BME280;37382;45.192;9.790;2023-02-18T03:46:42;102494.94;;;4.19;100.00
51299;BME280;37382;45.192;9.790;2023-02-18T03:49:12;102499.38;;;4.07;100.00
51299;BME280;37382;45.192;9.790;2023-02-18T03:51:40;102496.19;;;4.02;100.00
51299;BME280;37382;45.192;9.790;2023-02-18T03:54:09;102493.53;;;3.77;100.00
51299;BME280;37382;45.192;9.790;2023-02-18T03:56:36;102502.91;;;3.58;100.00
51299;BME280;37382;45.192;9.790;2023-02-18T03:59:03;102502.91;;;3.32;100.00
51299;BME280;37382;45.192;9.790;2023-02-18T04:01:31;102504.41;;;3.49;100.00
51299;BME280;37382;45.192;9.790;2023-02-18T04:03:58;102504.97;;;3.42;100.00
51299;BME280;37382;45.192;9.790;2023-02-18T04:06:26;102499.69;;;3.40;100.00
51299;BME280;37382;45.192;9.790;2023-02-18T04:08:53;102500.00;;;3.48;100.00
51299;BME280;37382;45.192;9.790;2023-02-18T04:11:21;102498.81;;;3.52;100.00
51299;BME280;37382;45.192;9.790;2023-02-18T04:13:48;102501.06;;;3.84;100.00
51299;BME280;37382;45.192;9.790;2023-02-18T04:16:16;102500.13;;;3.60;100.00
51299;BME280;37382;45.192;9.790;2023-02-18T04:18:44;102508.19;;;3.47;100.00
51299;BME280;37382;45.192;9.790;2023-02-18T04:21:11;102510.44;;;3.66;100.00
51299;BME280;37382;45.192;9.790;2023-02-18T04:23:39;102517.63;;;3.65;100.00
51299;BME280;37382;45.192;9.790;2023-02-18T04:26:09;102505.59;;;3.71;100.00
51299;BME280;37382;45.192;9.790;2023-02-18T04:28:37;102503.78;;;3.46;100.00
51299;BME280;37382;45.192;9.790;2023-02-18T04:31:04;102505.28;;;3.63;100.00
51299;BME280;37382;45.192;9.790;2023-02-18T04:33:32;102502.91;;;3.84;100.00
51299;BME280;37382;45.192;9.790;2023-02-18T04:35:59;102494.94;;;4.06;100.00
51299;BME280;37382;45.192;9.790;2023-02-18T04:38:27;102494.81;;;4.21;100.00
51299;BME280;37382;45.192;9.790;2023-02-18T04:40:55;102513.75;;;3.95;100.00
51299;BME280;37382;45.192;9.790;2023-02-18T04:43:22;102518.94;;;3.72;100.00
51299;BME280;37382;45.192;9.790;2023-02-18T04:45:49;102516.91;;;3.37;100.00
51299;BME280;37382;45.192;9.790;2023-02-18T04:48:17;102522.69;;;3.70;100.00
51299;BME280;37382;45.192;9.790;2023-02-18T04:50:45;102524.06;;;4.01;100.00
51299;BME280;37382;45.192;9.790;2023-02-18T04:53:12;102522.44;;;3.99;100.00
51299;BME280;37382;45.192;9.790;2023-02-18T04:55:40;102511.09;;;4.19;100.00
51299;BME280;37382;45.192;9.790;2023-02-18T04:58:07;102513.97;;;3.92;100.00
51299;BME280;37382;45.192;9.790;2023-02-18T05:00:36;102513.47;;;4.11;100.00
51299;BME280;37382;45.192;9.790;2023-02-18T05:03:04;102517.19;;;4.34;100.00
51299;BME280;37382;45.192;9.790;2023-02-18T05:05:31;102512.53;;;4.36;100.00
51299;BME280;37382;45.192;9.790;2023-02-18T05:07:59;102512.72;;;4.46;100.00
51299;BME280;37382;45.192;9.790;2023-02-18T05:10:28;102507.50;;;4.56;100.00
51299;BME280;37382;45.192;9.790;2023-02-18T05:12:55;102511.28;;;4.53;100.00
51299;BME280;37382;45.192;9.790;2023-02-18T05:15:22;102507.28;;;4.59;100.00
51299;BME280;37382;45.192;9.790;2023-02-18T05:17:51;102506.75;;;4.78;100.00
51299;BME280;37382;45.192;9.790;2023-02-18T05:20:20;102506.31;;;4.60;100.00
51299;BME280;37382;45.192;9.790;2023-02-18T05:22:47;102510.91;;;4.47;100.00
51299;BME280;37382;45.192;9.790;2023-02-18T05:25:15;102509.47;;;4.17;100.00
51299;BME280;37382;45.192;9.790;2023-02-18T05:27:42;102514.94;;;3.78;100.00
51299;BME280;37382;45.192;9.790;2023-02-18T05:30:09;102507.22;;;3.48;100.00
51299;BME280;37382;45.192;9.790;2023-02-18T05:32:37;102511.19;;;3.29;100.00
51299;BME280;37382;45.192;9.790;2023-02-18T05:35:05;102516.66;;;3.15;100.00
51299;BME280;37382;45.192;9.790;2023-02-18T05:37:32;102511.91;;;3.06;100.00
51299;BME280;37382;45.192;9.790;2023-02-18T05:40:00;102513.00;;;3.03;100.00
51299;BME280;37382;45.192;9.790;2023-02-18T05:42:28;102517.69;;;2.99;100.00
51299;BME280;37382;45.192;9.790;2023-02-18T05:44:56;102524.00;;;2.85;100.00
51299;BME280;37382;45.192;9.790;2023-02-18T05:47:24;102522.06;;;2.75;100.00
51299;BME280;37382;45.192;9.790;2023-02-18T05:49:51;102534.13;;;2.55;100.00
51299;BME280;37382;45.192;9.790;2023-02-18T05:52:19;102539.63;;;2.39;100.00
51299;BME280;37382;45.192;9.790;2023-02-18T05:54:48;102529.47;;;2.29;100.00
51299;BME280;37382;45.192;9.790;2023-02-18T05:57:16;102529.88;;;2.65;100.00
51299;BME280;37382;45.192;9.790;2023-02-18T05:59:44;102529.97;;;3.03;100.00
51299;BME280;37382;45.192;9.790;2023-02-18T06:02:11;102539.25;;;3.25;100.00
51299;BME280;37382;45.192;9.790;2023-02-18T06:04:38;102535.53;;;3.53;100.00
51299;BME280;37382;45.192;9.790;2023-02-18T06:07:06;102527.44;;;3.79;100.00
51299;BME280;37382;45.192;9.790;2023-02-18T06:09:34;102539.47;;;3.86;100.00
51299;BME280;37382;45.192;9.790;2023-02-18T06:12:01;102533.22;;;3.99;100.00
51299;BME280;37382;45.192;9.790;2023-02-18T06:14:29;102532.94;;;3.78;100.00
51299;BME280;37382;45.192;9.790;2023-02-18T06:16:56;102534.53;;;3.54;100.00
51299;BME280;37382;45.192;9.790;2023-02-18T06:19:24;102532.72;;;3.55;100.00
51299;BME280;37382;45.192;9.790;2023-02-18T06:21:51;102526.47;;;3.80;100.00
51299;BME280;37382;45.192;9.790;2023-02-18T06:24:19;102531.22;;;3.77;100.00
51299;BME280;37382;45.192;9.790;2023-02-18T06:26:46;102533.50;;;3.44;100.00
51299;BME280;37382;45.192;9.790;2023-02-18T06:29:13;102542.28;;;3.20;100.00
51299;BME280;37382;45.192;9.790;2023-02-18T06:31:40;102528.75;;;2.95;100.00
51299;BME280;37382;45.192;9.790;2023-02-18T06:34:08;102537.00;;;2.79;100.00
51299;BME280;37382;45.192;9.790;2023-02-18T06:36:36;102540.34;;;2.55;100.00
51299;BME280;37382;45.192;9.790;2023-02-18T06:39:04;102538.72;;;2.53;100.00
51299;BME280;37382;45.192;9.790;2023-02-18T06:41:32;102550.25;;;2.40;100.00
51299;BME280;37382;45.192;9.790;2023-02-18T06:43:59;102547.47;;;2.42;100.00
51299;BME280;37382;45.192;9.790;2023-02-18T06:46:28;102543.25;;;2.79;100.00
51299;BME280;37382;45.192;9.790;2023-02-18T06:48:55;102542.72;;;2.87;100.00
51299;BME280;37382;45.192;9.790;2023-02-18T06:51:23;102554.75;;;2.81;100.00
51299;BME280;37382;45.192;9.790;2023-02-18T06:53:51;102544.59;;;2.72;100.00
51299;BME280;37382;45.192;9.790;2023-02-18T06:56:18;102554.53;;;2.84;100.00
51299;BME280;37382;45.192;9.790;2023-02-18T06:58:45;102551.88;;;3.25;100.00
51299;BME280;37382;45.192;9.790;2023-02-18T07:01:13;102554.78;;;3.73;100.00
51299;BME280;37382;45.192;9.790;2023-02-18T07:03:40;102566.19;;;3.64;100.00
51299;BME280;37382;45.192;9.790;2023-02-18T07:06:07;102565.66;;;3.46;100.00
51299;BME280;37382;45.192;9.790;2023-02-18T07:08:36;102554.03;;;3.58;100.00
51299;BME280;37382;45.192;9.790;2023-02-18T07:11:04;102558.69;;;3.69;100.00
51299;BME280;37382;45.192;9.790;2023-02-18T07:13:31;102561.91;;;3.61;100.00
51299;BME280;37382;45.192;9.790;2023-02-18T07:15:59;102565.09;;;4.05;100.00
51299;BME280;37382;45.192;9.790;2023-02-18T07:18:27;102571.59;;;3.77;100.00
51299;BME280;37382;45.192;9.790;2023-02-18T07:20:54;102571.25;;;3.81;100.00
51299;BME280;37382;45.192;9.790;2023-02-18T07:23:21;102574.19;;;3.78;100.00
51299;BME280;37382;45.192;9.790;2023-02-18T07:25:49;102572.22;;;3.80;100.00
51299;BME280;37382;45.192;9.790;2023-02-18T07:28:18;102570.28;;;3.95;100.00
51299;BME280;37382;45.192;9.790;2023-02-18T07:30:45;102582.44;;;4.14;100.00
51299;BME280;37382;45.192;9.790;2023-02-18T07:33:12;102575.88;;;4.55;100.00
51299;BME280;37382;45.192;9.790;2023-02-18T07:35:40;102572.56;;;4.75;100.00
51299;BME280;37382;45.192;9.790;2023-02-18T07:38:07;102571.41;;;4.67;100.00
51299;BME280;37382;45.192;9.790;2023-02-18T07:40:35;102567.09;;;4.88;100.00
51299;BME280;37382;45.192;9.790;2023-02-18T07:43:02;102570.13;;;5.08;100.00
51299;BME280;37382;45.192;9.790;2023-02-18T07:45:30;102576.31;;;5.21;100.00
51299;BME280;37382;45.192;9.790;2023-02-18T07:47:58;102570.53;;;5.50;100.00
51299;BME280;37382;45.192;9.790;2023-02-18T07:50:25;102569.19;;;5.67;100.00
51299;BME280;37382;45.192;9.790;2023-02-18T07:52:53;102569.78;;;5.59;100.00
51299;BME280;37382;45.192;9.790;2023-02-18T07:55:21;102568.47;;;5.65;100.00
51299;BME280;37382;45.192;9.790;2023-02-18T07:57:50;102572.06;;;5.99;100.00
51299;BME280;37382;45.192;9.790;2023-02-18T08:00:24;102554.75;;;6.13;100.00
51299;BME280;37382;45.192;9.790;2023-02-18T08:02:52;102554.69;;;6.58;100.00
51299;BME280;37382;45.192;9.790;2023-02-18T08:05:19;102568.66;;;6.64;100.00
51299;BME280;37382;45.192;9.790;2023-02-18T08:07:46;102557.06;;;6.84;100.00
51299;BME280;37382;45.192;9.790;2023-02-18T08:10:14;102558.16;;;7.14;100.00
51299;BME280;37382;45.192;9.790;2023-02-18T08:12:42;102552.38;;;7.40;100.00
51299;BME280;37382;45.192;9.790;2023-02-18T08:15:09;102545.69;;;7.65;100.00
51299;BME280;37382;45.192;9.790;2023-02-18T08:17:37;102549.31;;;7.75;100.00
51299;BME280;37382;45.192;9.790;2023-02-18T08:20:05;102545.28;;;8.00;100.00
51299;BME280;37382;45.192;9.790;2023-02-18T08:22:33;102549.50;;;7.83;100.00
51299;BME280;37382;45.192;9.790;2023-02-18T08:25:00;102549.84;;;8.00;100.00
51299;BME280;37382;45.192;9.790;2023-02-18T08:27:28;102552.09;;;8.26;100.00
51299;BME280;37382;45.192;9.790;2023-02-18T08:29:55;102546.75;;;8.45;100.00
51299;BME280;37382;45.192;9.790;2023-02-18T08:32:27;102545.78;;;8.56;100.00
51299;BME280;37382;45.192;9.790;2023-02-18T08:34:55;102547.22;;;8.70;100.00
51299;BME280;37382;45.192;9.790;2023-02-18T08:37:22;102543.66;;;8.89;100.00
51299;BME280;37382;45.192;9.790;2023-02-18T08:39:50;102544.69;;;9.07;100.00
51299;BME280;37382;45.192;9.790;2023-02-18T08:42:17;102542.06;;;9.25;100.00
51299;BME280;37382;45.192;9.790;2023-02-18T08:44:45;102541.06;;;9.46;100.00
51299;BME280;37382;45.192;9.790;2023-02-18T08:47:12;102538.63;;;9.43;100.00
51299;BME280;37382;45.192;9.790;2023-02-18T08:50:00;102544.75;;;9.45;100.00
51299;BME280;37382;45.192;9.790;2023-02-18T08:52:28;102543.94;;;9.05;100.00
51299;BME280;37382;45.192;9.790;2023-02-18T08:54:55;102540.91;;;9.38;100.00
51299;BME280;37382;45.192;9.790;2023-02-18T08:57:23;102546.69;;;9.72;100.00
51299;BME280;37382;45.192;9.790;2023-02-18T08:59:51;102548.44;;;9.64;100.00
51299;BME280;37382;45.192;9.790;2023-02-18T09:02:18;102550.19;;;9.45;100.00
51299;BME280;37382;45.192;9.790;2023-02-18T09:04:46;102548.91;;;9.49;100.00
51299;BME280;37382;45.192;9.790;2023-02-18T09:07:13;102550.50;;;9.89;100.00
51299;BME280;37382;45.192;9.790;2023-02-18T09:09:43;102555.00;;;10.08;100.00
51299;BME280;37382;45.192;9.790;2023-02-18T09:12:11;102547.25;;;10.13;100.00
51299;BME280;37382;45.192;9.790;2023-02-18T09:14:38;102550.88;;;10.04;100.00
51299;BME280;37382;45.192;9.790;2023-02-18T09:17:06;102550.00;;;10.41;100.00
51299;BME280;37382;45.192;9.790;2023-02-18T09:19:33;102549.75;;;10.35;100.00
51299;BME280;37382;45.192;9.790;2023-02-18T09:22:01;102543.25;;;10.45;100.00
51299;BME280;37382;45.192;9.790;2023-02-18T09:24:29;102552.72;;;10.41;100.00
51299;BME280;37382;45.192;9.790;2023-02-18T09:26:56;102550.34;;;10.28;100.00
51299;BME280;37382;45.192;9.790;2023-02-18T09:29:24;102541.88;;;10.31;100.00
51299;BME280;37382;45.192;9.790;2023-02-18T09:31:51;102547.53;;;10.48;100.00
51299;BME280;37382;45.192;9.790;2023-02-18T09:34:19;102539.69;;;10.45;100.00
51299;BME280;37382;45.192;9.790;2023-02-18T09:36:46;102542.13;;;10.38;100.00
51299;BME280;37382;45.192;9.790;2023-02-18T09:39:14;102540.00;;;10.42;100.00
51299;BME280;37382;45.192;9.790;2023-02-18T09:44:17;102541.63;;;10.53;100.00
51299;BME280;37382;45.192;9.790;2023-02-18T09:49:26;102545.75;;;10.75;100.00
51299;BME280;37382;45.192;9.790;2023-02-18T09:51:55;102542.66;;;10.70;100.00
51299;BME280;37382;45.192;9.790;2023-02-18T09:54:25;102529.75;;;11.08;100.00
51299;BME280;37382;45.192;9.790;2023-02-18T09:56:53;102529.44;;;10.93;100.00
51299;BME280;37382;45.192;9.790;2023-02-18T09:59:21;102524.34;;;11.60;100.00
51299;BME280;37382;45.192;9.790;2023-02-18T10:01:52;102518.88;;;11.60;100.00
51299;BME280;37382;45.192;9.790;2023-02-18T10:04:27;102520.34;;;11.28;100.00
51299;BME280;37382;45.192;9.790;2023-02-18T10:06:57;102517.28;;;11.05;100.00
51299;BME280;37382;45.192;9.790;2023-02-18T10:09:32;102508.78;;;11.26;100.00
51299;BME280;37382;45.192;9.790;2023-02-18T10:14:32;102503.47;;;12.03;100.00
51299;BME280;37382;45.192;9.790;2023-02-18T10:17:03;102510.13;;;11.74;100.00
51299;BME280;37382;45.192;9.790;2023-02-18T10:19:33;102496.81;;;11.71;100.00
51299;BME280;37382;45.192;9.790;2023-02-18T10:22:04;102501.63;;;12.12;100.00
51299;BME280;37382;45.192;9.790;2023-02-18T10:24:52;102504.38;;;11.51;100.00
51299;BME280;37382;45.192;9.790;2023-02-18T10:27:26;102506.91;;;11.27;100.00
51299;BME280;37382;45.192;9.790;2023-02-18T10:32:43;102494.91;;;11.37;100.00
51299;BME280;37382;45.192;9.790;2023-02-18T10:35:50;102488.97;;;11.42;100.00
51299;BME280;37382;45.192;9.790;2023-02-18T10:41:02;102485.53;;;11.66;100.00
51299;BME280;37382;45.192;9.790;2023-02-18T10:43:46;102477.94;;;12.21;100.00
51299;BME280;37382;45.192;9.790;2023-02-18T10:46:47;102472.47;;;12.04;100.00
51299;BME280;37382;45.192;9.790;2023-02-18T10:52:05;102466.00;;;12.14;100.00
51299;BME280;37382;45.192;9.790;2023-02-18T10:55:04;102471.81;;;12.19;100.00
51299;BME280;37382;45.192;9.790;2023-02-18T10:57:33;102463.97;;;12.16;100.00
51299;BME280;37382;45.192;9.790;2023-02-18T11:00:18;102460.22;;;12.17;100.00
51299;BME280;37382;45.192;9.790;2023-02-18T11:03:03;102451.03;;;12.34;100.00
51299;BME280;37382;45.192;9.790;2023-02-18T11:05:37;102442.19;;;12.65;100.00
51299;BME280;37382;45.192;9.790;2023-02-18T11:08:12;102448.38;;;12.00;100.00
51299;BME280;37382;45.192;9.790;2023-02-18T11:10:42;102444.84;;;12.16;100.00
51299;BME280;37382;45.192;9.790;2023-02-18T11:13:25;102436.56;;;12.42;100.00
51299;BME280;37382;45.192;9.790;2023-02-18T11:15:58;102435.91;;;12.56;100.00
51299;BME280;37382;45.192;9.790;2023-02-18T11:18:42;102442.69;;;12.27;100.00
51299;BME280;37382;45.192;9.790;2023-02-18T11:23:52;102425.81;;;12.32;100.00
51299;BME280;37382;45.192;9.790;2023-02-18T11:26:27;102418.94;;;12.12;100.00
51299;BME280;37382;45.192;9.790;2023-02-18T11:29:00;102415.06;;;12.31;100.00
51299;BME280;37382;45.192;9.790;2023-02-18T11:31:42;102408.22;;;12.18;100.00
51299;BME280;37382;45.192;9.790;2023-02-18T11:34:19;102395.44;;;12.43;100.00
51299;BME280;37382;45.192;9.790;2023-02-18T11:36:49;102407.56;;;12.82;100.00
51299;BME280;37382;45.192;9.790;2023-02-18T11:39:28;102387.63;;;12.49;100.00
51299;BME280;37382;45.192;9.790;2023-02-18T11:41:57;102390.66;;;12.62;100.00
51299;BME280;37382;45.192;9.790;2023-02-18T11:47:08;102378.34;;;12.99;100.00
51299;BME280;37382;45.192;9.790;2023-02-18T11:50:20;102379.34;;;13.14;100.00
51299;BME280;37382;45.192;9.790;2023-02-18T11:52:47;102363.72;;;13.48;100.00
51299;BME280;37382;45.192;9.790;2023-02-18T11:57:47;102350.72;;;13.50;100.00
51299;BME280;37382;45.192;9.790;2023-02-18T12:00:18;102347.28;;;13.56;100.00
51299;BME280;37382;45.192;9.790;2023-02-18T12:02:48;102341.13;;;13.54;100.00
51299;BME280;37382;45.192;9.790;2023-02-18T12:05:24;102347.16;;;13.33;100.00
51299;BME280;37382;45.192;9.790;2023-02-18T12:08:02;102345.06;;;13.51;100.00
51299;BME280;37382;45.192;9.790;2023-02-18T12:10:34;102329.75;;;13.42;100.00
51299;BME280;37382;45.192;9.790;2023-02-18T12:46:17;102272.63;;;14.93;100.00
51299;BME280;37382;45.192;9.790;2023-02-18T12:57:30;102258.28;;;14.38;100.00
51299;BME280;37382;45.192;9.790;2023-02-18T13:00:10;102250.25;;;14.89;100.00
51299;BME280;37382;45.192;9.790;2023-02-18T13:05:40;102225.63;;;15.26;100.00
51299;BME280;37382;45.192;9.790;2023-02-18T13:13:19;102218.97;;;14.69;100.00
51299;BME280;37382;45.192;9.790;2023-02-18T13:15:51;102203.72;;;15.11;100.00
51299;BME280;37382;45.192;9.790;2023-02-18T13:19:01;102201.53;;;15.21;100.00
51299;BME280;37382;45.192;9.790;2023-02-18T13:21:31;102195.66;;;15.24;100.00
51299;BME280;37382;45.192;9.790;2023-02-18T13:24:05;102188.88;;;15.42;100.00
51299;BME280;37382;45.192;9.790;2023-02-18T13:26:34;102183.34;;;16.00;100.00
51299;BME280;37382;45.192;9.790;2023-02-18T13:34:27;102183.84;;;15.82;100.00
51299;BME280;37382;45.192;9.790;2023-02-18T13:37:07;102178.06;;;15.55;100.00
51299;BME280;37382;45.192;9.790;2023-02-18T13:39:46;102179.66;;;15.71;100.00
51299;BME280;37382;45.192;9.790;2023-02-18T13:47:34;102161.03;;;16.10;100.00
51299;BME280;37382;45.192;9.790;2023-02-18T13:52:49;102123.72;;;18.59;100.00
51299;BME280;37382;45.192;9.790;2023-02-18T13:55:19;102097.09;;;21.64;87.90
51299;BME280;37382;45.192;9.790;2023-02-18T13:57:52;102094.59;;;22.34;74.54
51299;BME280;37382;45.192;9.790;2023-02-18T14:00:33;102086.44;;;23.59;63.30
51299;BME280;37382;45.192;9.790;2023-02-18T14:03:20;102086.88;;;22.00;66.09
51299;BME280;37382;45.192;9.790;2023-02-18T14:05:58;102072.44;;;24.94;55.80
51299;BME280;37382;45.192;9.790;2023-02-18T14:08:36;102076.53;;;25.78;53.91
51299;BME280;37382;45.192;9.790;2023-02-18T14:13:47;102119.72;;;21.49;61.26
51299;BME280;37382;45.192;9.790;2023-02-18T14:16:17;102110.44;;;22.50;60.25
51299;BME280;37382;45.192;9.790;2023-02-18T14:26:27;102110.63;;;24.32;55.99
51299;BME280;37382;45.192;9.790;2023-02-18T14:29:00;102116.47;;;22.59;56.54
51299;BME280;37382;45.192;9.790;2023-02-18T14:31:33;102102.31;;;22.72;56.59
51299;BME280;37382;45.192;9.790;2023-02-18T14:50:42;102111.38;;;16.81;90.45
51299;BME280;37382;45.192;9.790;2023-02-18T14:53:13;102105.88;;;16.81;89.36
51299;BME280;37382;45.192;9.790;2023-02-18T14:55:50;102113.28;;;16.39;93.63
51299;BME280;37382;45.192;9.790;2023-02-18T14:58:35;102105.00;;;16.32;95.71
51299;BME280;37382;45.192;9.790;2023-02-18T15:03:34;102106.28;;;16.36;99.46
51299;BME280;37382;45.192;9.790;2023-02-18T15:08:54;102088.31;;;16.82;98.13
51299;BME280;37382;45.192;9.790;2023-02-18T15:11:28;102097.34;;;16.69;99.61
51299;BME280;37382;45.192;9.790;2023-02-18T15:13:59;102088.44;;;16.61;100.00
51299;BME280;37382;45.192;9.790;2023-02-18T15:16:32;102092.09;;;16.26;100.00
51299;BME280;37382;45.192;9.790;2023-02-18T15:19:06;102095.34;;;16.43;100.00
51299;BME280;37382;45.192;9.790;2023-02-18T15:21:37;102090.09;;;16.55;100.00
51299;BME280;37382;45.192;9.790;2023-02-18T15:26:44;102083.19;;;16.24;100.00
51299;BME280;37382;45.192;9.790;2023-02-18T15:29:21;102085.72;;;16.19;100.00
51299;BME280;37382;45.192;9.790;2023-02-18T15:31:49;102095.44;;;15.87;100.00
51299;BME280;37382;45.192;9.790;2023-02-18T15:34:33;102087.63;;;15.90;100.00
51299;BME280;37382;45.192;9.790;2023-02-18T15:37:02;102091.28;;;15.97;100.00
51299;BME280;37382;45.192;9.790;2023-02-18T15:39:30;102092.28;;;15.90;100.00
51299;BME280;37382;45.192;9.790;2023-02-18T15:42:14;102083.25;;;16.31;100.00
51299;BME280;37382;45.192;9.790;2023-02-18T15:44:47;102081.13;;;15.98;100.00
51299;BME280;37382;45.192;9.790;2023-02-18T15:47:17;102076.88;;;16.24;100.00
51299;BME280;37382;45.192;9.790;2023-02-18T15:49:48;102074.63;;;16.47;100.00
51299;BME280;37382;45.192;9.790;2023-02-18T15:52:23;102074.97;;;16.72;100.00
51299;BME280;37382;45.192;9.790;2023-02-18T15:54:52;102079.13;;;16.13;100.00
51299;BME280;37382;45.192;9.790;2023-02-18T15:57:23;102074.28;;;16.57;100.00